Moorhead, Minnesota
Current Conditions -  °F | °C
As of 9:53 PM on Saturday 22 Nov 2014 (Local Time) from KFAR Reporting Station
Haze Haze  
Wind Chill: 27°   Ceiling: 400
Heat Index: 36°   Visibility: 5mi
Dew Point: 32°   Wind: 14mph
Humidity: 86%   Direction: 150°SSE
Pressure: 29.38"   Gusts: 24mph
Location:  46.88°N, 96.77°W
Report Text: KFAR 230353Z 15012G21KT 5SM BR OVC004 02/00 A2938 RMK AO2 SLP959 T00220000
Loading
Personal Weather Stations






























Interactive Weather Map New forecast layout! Learn more

10-Day Weather Forecast

Advertisements
Track Severe Weather on mobile